sensor_id;sensor_type;location;lat;lon;timestamp;pressure;altitude;pressure_sealevel;temperature;humidity
5462;BME280;912;48.130;11.348;2022-08-21T00:00:07;95483.91;;;16.51;100.00
5462;BME280;912;48.130;11.348;2022-08-21T00:02:49;95483.22;;;16.43;100.00
5462;BME280;912;48.130;11.348;2022-08-21T00:05:29;95485.27;;;16.43;100.00
5462;BME280;912;48.130;11.348;2022-08-21T00:08:10;95489.18;;;16.44;100.00
5462;BME280;912;48.130;11.348;2022-08-21T00:10:53;95486.27;;;16.39;100.00
5462;BME280;912;48.130;11.348;2022-08-21T00:13:35;95483.86;;;16.37;100.00
5462;BME280;912;48.130;11.348;2022-08-21T00:16:16;95481.27;;;16.37;100.00
5462;BME280;912;48.130;11.348;2022-08-21T00:18:58;95479.02;;;16.35;100.00
5462;BME280;912;48.130;11.348;2022-08-21T00:21:40;95481.33;;;16.29;100.00
5462;BME280;912;48.130;11.348;2022-08-21T00:24:22;95480.87;;;16.32;100.00
5462;BME280;912;48.130;11.348;2022-08-21T00:27:05;95479.77;;;16.28;100.00
5462;BME280;912;48.130;11.348;2022-08-21T00:29:50;95479.94;;;16.22;100.00
5462;BME280;912;48.130;11.348;2022-08-21T00:32:32;95475.55;;;16.22;100.00
5462;BME280;912;48.130;11.348;2022-08-21T00:35:51;95476.09;;;16.18;100.00
5462;BME280;912;48.130;11.348;2022-08-21T00:38:32;95475.58;;;16.20;100.00
5462;BME280;912;48.130;11.348;2022-08-21T00:41:14;95474.64;;;16.16;100.00
5462;BME280;912;48.130;11.348;2022-08-21T00:43:56;95470.76;;;16.13;100.00
5462;BME280;912;48.130;11.348;2022-08-21T00:46:38;95472.94;;;16.10;100.00
5462;BME280;912;48.130;11.348;2022-08-21T00:49:22;95476.66;;;16.04;100.00
5462;BME280;912;48.130;11.348;2022-08-21T00:52:05;95474.05;;;16.07;100.00
5462;BME280;912;48.130;11.348;2022-08-21T00:54:46;95473.36;;;16.03;100.00
5462;BME280;912;48.130;11.348;2022-08-21T00:57:30;95475.31;;;16.05;100.00
5462;BME280;912;48.130;11.348;2022-08-21T01:00:13;95473.80;;;16.06;100.00
5462;BME280;912;48.130;11.348;2022-08-21T01:02:53;95468.39;;;16.03;100.00
5462;BME280;912;48.130;11.348;2022-08-21T01:05:34;95467.88;;;16.01;100.00
5462;BME280;912;48.130;11.348;2022-08-21T01:10:40;95461.88;;;15.91;100.00
5462;BME280;912;48.130;11.348;2022-08-21T01:13:22;95459.97;;;15.90;100.00
5462;BME280;912;48.130;11.348;2022-08-21T01:16:04;95461.46;;;15.91;100.00
5462;BME280;912;48.130;11.348;2022-08-21T01:18:45;95454.42;;;15.81;100.00
5462;BME280;912;48.130;11.348;2022-08-21T01:21:27;95458.81;;;15.81;100.00
5462;BME280;912;48.130;11.348;2022-08-21T01:24:08;95456.88;;;15.76;100.00
5462;BME280;912;48.130;11.348;2022-08-21T01:26:50;95457.69;;;15.79;100.00
5462;BME280;912;48.130;11.348;2022-08-21T01:29:37;95456.33;;;15.78;100.00
5462;BME280;912;48.130;11.348;2022-08-21T01:32:17;95456.55;;;15.73;100.00
5462;BME280;912;48.130;11.348;2022-08-21T01:35:56;95456.30;;;15.66;100.00
5462;BME280;912;48.130;11.348;2022-08-21T01:38:38;95455.17;;;15.59;100.00
5462;BME280;912;48.130;11.348;2022-08-21T01:41:20;95454.44;;;15.55;100.00
5462;BME280;912;48.130;11.348;2022-08-21T01:44:02;95454.11;;;15.55;100.00
5462;BME280;912;48.130;11.348;2022-08-21T01:46:49;95459.53;;;15.50;100.00
5462;BME280;912;48.130;11.348;2022-08-21T01:49:30;95455.55;;;15.50;100.00
5462;BME280;912;48.130;11.348;2022-08-21T01:52:15;95460.83;;;15.46;100.00
5462;BME280;912;48.130;11.348;2022-08-21T01:54:57;95455.88;;;15.46;100.00
5462;BME280;912;48.130;11.348;2022-08-21T01:57:42;95448.92;;;15.44;100.00
5462;BME280;912;48.130;11.348;2022-08-21T02:00:23;95450.19;;;15.40;100.00
5462;BME280;912;48.130;11.348;2022-08-21T02:03:05;95448.05;;;15.33;100.00
5462;BME280;912;48.130;11.348;2022-08-21T02:05:46;95443.00;;;15.32;100.00
5462;BME280;912;48.130;11.348;2022-08-21T02:08:28;95440.44;;;15.31;100.00
5462;BME280;912;48.130;11.348;2022-08-21T02:11:10;95442.16;;;15.27;100.00
5462;BME280;912;48.130;11.348;2022-08-21T02:13:54;95434.22;;;15.21;100.00
5462;BME280;912;48.130;11.348;2022-08-21T02:16:35;95429.47;;;15.22;100.00
5462;BME280;912;48.130;11.348;2022-08-21T02:19:19;95429.48;;;15.20;100.00
5462;BME280;912;48.130;11.348;2022-08-21T02:22:01;95425.72;;;15.17;100.00
5462;BME280;912;48.130;11.348;2022-08-21T02:24:43;95426.56;;;15.15;100.00
5462;BME280;912;48.130;11.348;2022-08-21T02:27:25;95429.03;;;15.13;100.00
5462;BME280;912;48.130;11.348;2022-08-21T02:30:08;95431.09;;;15.11;100.00
5462;BME280;912;48.130;11.348;2022-08-21T02:32:50;95434.82;;;15.11;100.00
5462;BME280;912;48.130;11.348;2022-08-21T02:35:52;95430.09;;;15.06;100.00
5462;BME280;912;48.130;11.348;2022-08-21T02:38:35;95432.75;;;14.97;100.00
5462;BME280;912;48.130;11.348;2022-08-21T02:41:17;95429.88;;;14.97;100.00
5462;BME280;912;48.130;11.348;2022-08-21T02:43:57;95432.89;;;14.93;100.00
5462;BME280;912;48.130;11.348;2022-08-21T02:46:39;95433.56;;;14.91;100.00
5462;BME280;912;48.130;11.348;2022-08-21T02:49:20;95432.58;;;14.87;100.00
5462;BME280;912;48.130;11.348;2022-08-21T02:52:04;95433.03;;;14.87;100.00
5462;BME280;912;48.130;11.348;2022-08-21T02:54:49;95434.68;;;14.92;100.00
5462;BME280;912;48.130;11.348;2022-08-21T02:57:31;95429.54;;;15.02;100.00
5462;BME280;912;48.130;11.348;2022-08-21T03:00:12;95426.55;;;15.05;100.00
5462;BME280;912;48.130;11.348;2022-08-21T03:02:54;95420.94;;;15.11;100.00
5462;BME280;912;48.130;11.348;2022-08-21T03:05:36;95422.42;;;15.12;100.00
5462;BME280;912;48.130;11.348;2022-08-21T03:08:18;95421.00;;;15.16;100.00
5462;BME280;912;48.130;11.348;2022-08-21T03:10:59;95420.77;;;15.17;100.00
5462;BME280;912;48.130;11.348;2022-08-21T03:13:41;95420.66;;;15.15;100.00
5462;BME280;912;48.130;11.348;2022-08-21T03:16:23;95419.52;;;15.15;100.00
5462;BME280;912;48.130;11.348;2022-08-21T03:19:05;95421.42;;;15.14;100.00
5462;BME280;912;48.130;11.348;2022-08-21T03:21:46;95426.73;;;15.12;100.00
5462;BME280;912;48.130;11.348;2022-08-21T03:24:28;95425.84;;;15.11;100.00
5462;BME280;912;48.130;11.348;2022-08-21T03:27:10;95429.09;;;15.08;100.00
5462;BME280;912;48.130;11.348;2022-08-21T03:29:52;95431.71;;;15.02;100.00
5462;BME280;912;48.130;11.348;2022-08-21T03:32:33;95431.33;;;15.03;100.00
5462;BME280;912;48.130;11.348;2022-08-21T03:35:57;95427.16;;;14.98;100.00
5462;BME280;912;48.130;11.348;2022-08-21T03:38:37;95423.39;;;14.98;100.00
5462;BME280;912;48.130;11.348;2022-08-21T03:41:18;95420.66;;;14.97;100.00
5462;BME280;912;48.130;11.348;2022-08-21T03:44:00;95421.57;;;15.00;100.00
5462;BME280;912;48.130;11.348;2022-08-21T03:46:43;95422.95;;;14.97;100.00
5462;BME280;912;48.130;11.348;2022-08-21T03:49:25;95421.86;;;15.00;100.00
5462;BME280;912;48.130;11.348;2022-08-21T03:52:06;95428.22;;;15.08;100.00
5462;BME280;912;48.130;11.348;2022-08-21T03:54:48;95430.68;;;15.08;100.00
5462;BME280;912;48.130;11.348;2022-08-21T03:57:30;95430.95;;;15.12;100.00
5462;BME280;912;48.130;11.348;2022-08-21T04:00:15;95432.98;;;15.09;100.00
5462;BME280;912;48.130;11.348;2022-08-21T04:02:57;95440.20;;;15.12;100.00
5462;BME280;912;48.130;11.348;2022-08-21T04:05:38;95443.09;;;15.13;100.00
5462;BME280;912;48.130;11.348;2022-08-21T04:08:20;95440.69;;;15.12;100.00
5462;BME280;912;48.130;11.348;2022-08-21T04:11:02;95439.62;;;15.05;100.00
5462;BME280;912;48.130;11.348;2022-08-21T04:13:44;95444.34;;;15.03;100.00
5462;BME280;912;48.130;11.348;2022-08-21T04:16:28;95444.84;;;15.00;100.00
5462;BME280;912;48.130;11.348;2022-08-21T04:21:46;95446.01;;;15.02;100.00
5462;BME280;912;48.130;11.348;2022-08-21T04:24:28;95448.67;;;15.05;100.00
5462;BME280;912;48.130;11.348;2022-08-21T04:27:10;95453.35;;;15.00;100.00
5462;BME280;912;48.130;11.348;2022-08-21T04:29:52;95450.61;;;15.00;100.00
5462;BME280;912;48.130;11.348;2022-08-21T04:32:37;95456.42;;;15.00;100.00
5462;BME280;912;48.130;11.348;2022-08-21T04:35:50;95453.48;;;15.01;100.00
5462;BME280;912;48.130;11.348;2022-08-21T04:38:32;95451.97;;;15.00;100.00
5462;BME280;912;48.130;11.348;2022-08-21T04:41:14;95455.11;;;15.05;100.00
5462;BME280;912;48.130;11.348;2022-08-21T04:43:58;95452.16;;;15.03;100.00
5462;BME280;912;48.130;11.348;2022-08-21T04:46:40;95459.59;;;15.01;100.00
5462;BME280;912;48.130;11.348;2022-08-21T04:49:32;95461.92;;;15.00;100.00
5462;BME280;912;48.130;11.348;2022-08-21T04:52:17;95462.55;;;14.95;100.00
5462;BME280;912;48.130;11.348;2022-08-21T04:54:57;95463.46;;;14.85;100.00
5462;BME280;912;48.130;11.348;2022-08-21T04:57:39;95465.27;;;14.78;100.00
5462;BME280;912;48.130;11.348;2022-08-21T05:00:22;95465.13;;;14.77;100.00
5462;BME280;912;48.130;11.348;2022-08-21T05:03:02;95467.05;;;14.77;100.00
5462;BME280;912;48.130;11.348;2022-08-21T05:08:22;95468.53;;;14.82;100.00
5462;BME280;912;48.130;11.348;2022-08-21T05:11:04;95469.59;;;14.82;100.00
5462;BME280;912;48.130;11.348;2022-08-21T05:13:45;95470.48;;;14.89;100.00
5462;BME280;912;48.130;11.348;2022-08-21T05:16:27;95466.16;;;14.94;100.00
5462;BME280;912;48.130;11.348;2022-08-21T05:19:09;95461.41;;;15.17;100.00
5462;BME280;912;48.130;11.348;2022-08-21T05:21:51;95463.31;;;15.34;100.00
5462;BME280;912;48.130;11.348;2022-08-21T05:24:32;95468.00;;;15.60;100.00
5462;BME280;912;48.130;11.348;2022-08-21T05:27:14;95467.95;;;15.73;100.00
5462;BME280;912;48.130;11.348;2022-08-21T05:30:00;95465.31;;;15.90;100.00
5462;BME280;912;48.130;11.348;2022-08-21T05:32:42;95469.77;;;16.02;100.00
5462;BME280;912;48.130;11.348;2022-08-21T05:35:51;95466.22;;;16.11;100.00
5462;BME280;912;48.130;11.348;2022-08-21T05:38:32;95471.55;;;16.24;100.00
5462;BME280;912;48.130;11.348;2022-08-21T05:41:14;95464.47;;;16.30;100.00
5462;BME280;912;48.130;11.348;2022-08-21T05:43:56;95466.91;;;16.36;100.00
5462;BME280;912;48.130;11.348;2022-08-21T05:46:38;95471.20;;;16.44;100.00
5462;BME280;912;48.130;11.348;2022-08-21T05:49:19;95475.11;;;16.54;100.00
5462;BME280;912;48.130;11.348;2022-08-21T05:52:01;95479.69;;;16.68;100.00
5462;BME280;912;48.130;11.348;2022-08-21T05:54:43;95480.27;;;16.68;100.00
5462;BME280;912;48.130;11.348;2022-08-21T05:59:59;95492.98;;;16.78;100.00
5462;BME280;912;48.130;11.348;2022-08-21T06:02:41;95489.50;;;16.79;100.00
5462;BME280;912;48.130;11.348;2022-08-21T06:05:23;95489.17;;;16.88;100.00
5462;BME280;912;48.130;11.348;2022-08-21T06:08:04;95487.14;;;16.99;100.00
5462;BME280;912;48.130;11.348;2022-08-21T06:10:46;95486.72;;;17.09;100.00
5462;BME280;912;48.130;11.348;2022-08-21T06:13:28;95490.00;;;17.16;100.00
5462;BME280;912;48.130;11.348;2022-08-21T06:16:11;95494.67;;;17.26;100.00
5462;BME280;912;48.130;11.348;2022-08-21T06:18:51;95493.34;;;17.33;100.00
5462;BME280;912;48.130;11.348;2022-08-21T06:21:33;95498.95;;;17.40;100.00
5462;BME280;912;48.130;11.348;2022-08-21T06:24:14;95498.30;;;17.42;100.00
5462;BME280;912;48.130;11.348;2022-08-21T06:26:56;95503.84;;;17.50;100.00
5462;BME280;912;48.130;11.348;2022-08-21T06:29:38;95507.85;;;17.54;100.00
5462;BME280;912;48.130;11.348;2022-08-21T06:32:20;95508.87;;;17.59;100.00
5462;BME280;912;48.130;11.348;2022-08-21T06:35:50;95500.84;;;17.72;100.00
5462;BME280;912;48.130;11.348;2022-08-21T06:38:32;95506.19;;;17.70;100.00
5462;BME280;912;48.130;11.348;2022-08-21T06:41:14;95506.76;;;17.67;100.00
5462;BME280;912;48.130;11.348;2022-08-21T06:43:56;95504.64;;;17.81;100.00
5462;BME280;912;48.130;11.348;2022-08-21T06:46:37;95506.94;;;17.92;100.00
5462;BME280;912;48.130;11.348;2022-08-21T06:49:19;95498.03;;;17.98;100.00
5462;BME280;912;48.130;11.348;2022-08-21T06:52:03;95498.09;;;18.08;100.00
5462;BME280;912;48.130;11.348;2022-08-21T06:54:44;95492.92;;;18.13;100.00
5462;BME280;912;48.130;11.348;2022-08-21T06:57:26;95494.13;;;18.36;100.00
5462;BME280;912;48.130;11.348;2022-08-21T07:00:09;95497.88;;;18.41;100.00
5462;BME280;912;48.130;11.348;2022-08-21T07:02:54;95498.05;;;18.41;100.00
5462;BME280;912;48.130;11.348;2022-08-21T07:05:36;95501.80;;;18.48;100.00
5462;BME280;912;48.130;11.348;2022-08-21T07:10:05;95496.48;;;18.65;100.00
5462;BME280;912;48.130;11.348;2022-08-21T07:12:47;95498.50;;;18.68;100.00
5462;BME280;912;48.130;11.348;2022-08-21T07:15:29;95496.48;;;18.70;100.00
5462;BME280;912;48.130;11.348;2022-08-21T07:18:13;95496.23;;;18.99;100.00
5462;BME280;912;48.130;11.348;2022-08-21T07:20:55;95502.09;;;18.88;100.00
5462;BME280;912;48.130;11.348;2022-08-21T07:23:39;95496.59;;;19.07;100.00
5462;BME280;912;48.130;11.348;2022-08-21T07:26:22;95499.47;;;19.15;100.00
5462;BME280;912;48.130;11.348;2022-08-21T07:29:02;95494.05;;;19.26;100.00
5462;BME280;912;48.130;11.348;2022-08-21T07:31:44;95489.23;;;19.38;100.00
5462;BME280;912;48.130;11.348;2022-08-21T07:35:51;95493.22;;;19.46;100.00
5462;BME280;912;48.130;11.348;2022-08-21T07:38:32;95493.11;;;19.40;100.00
5462;BME280;912;48.130;11.348;2022-08-21T07:41:17;95495.35;;;19.71;100.00
5462;BME280;912;48.130;11.348;2022-08-21T07:43:58;95496.37;;;19.87;100.00
5462;BME280;912;48.130;11.348;2022-08-21T07:46:39;95497.27;;;19.79;100.00
5462;BME280;912;48.130;11.348;2022-08-21T07:49:21;95500.00;;;19.67;100.00
5462;BME280;912;48.130;11.348;2022-08-21T07:52:03;95495.06;;;19.93;100.00
5462;BME280;912;48.130;11.348;2022-08-21T07:54:44;95492.25;;;20.03;100.00
5462;BME280;912;48.130;11.348;2022-08-21T07:57:26;95490.34;;;19.94;100.00
5462;BME280;912;48.130;11.348;2022-08-21T08:00:12;95486.67;;;20.19;100.00
5462;BME280;912;48.130;11.348;2022-08-21T08:02:51;95480.78;;;20.37;100.00
5462;BME280;912;48.130;11.348;2022-08-21T08:05:33;95483.70;;;20.54;100.00
5462;BME280;912;48.130;11.348;2022-08-21T08:08:14;95481.47;;;20.61;100.00
5462;BME280;912;48.130;11.348;2022-08-21T08:10:56;95477.25;;;20.62;100.00
5462;BME280;912;48.130;11.348;2022-08-21T08:13:40;95481.80;;;20.76;100.00
5462;BME280;912;48.130;11.348;2022-08-21T08:16:21;95484.36;;;20.55;100.00
5462;BME280;912;48.130;11.348;2022-08-21T08:19:03;95487.50;;;20.44;100.00
5462;BME280;912;48.130;11.348;2022-08-21T08:21:44;95485.47;;;20.55;100.00
5462;BME280;912;48.130;11.348;2022-08-21T08:24:26;95482.55;;;21.01;100.00
5462;BME280;912;48.130;11.348;2022-08-21T08:27:08;95484.37;;;21.19;100.00
5462;BME280;912;48.130;11.348;2022-08-21T08:29:50;95486.50;;;21.07;100.00
5462;BME280;912;48.130;11.348;2022-08-21T08:32:31;95483.30;;;21.25;100.00
5462;BME280;912;48.130;11.348;2022-08-21T08:35:50;95478.88;;;21.52;100.00
5462;BME280;912;48.130;11.348;2022-08-21T08:38:32;95477.64;;;21.66;100.00
5462;BME280;912;48.130;11.348;2022-08-21T08:41:17;95476.05;;;21.81;100.00
5462;BME280;912;48.130;11.348;2022-08-21T08:44:00;95480.46;;;21.83;100.00
5462;BME280;912;48.130;11.348;2022-08-21T08:46:43;95478.85;;;22.08;100.00
5462;BME280;912;48.130;11.348;2022-08-21T08:49:27;95469.12;;;22.49;100.00
5462;BME280;912;48.130;11.348;2022-08-21T08:52:11;95471.21;;;22.84;100.00
5462;BME280;912;48.130;11.348;2022-08-21T08:54:51;95476.66;;;23.30;100.00
5462;BME280;912;48.130;11.348;2022-08-21T08:57:32;95477.22;;;23.27;100.00
5462;BME280;912;48.130;11.348;2022-08-21T09:00:15;95478.38;;;22.64;100.00
5462;BME280;912;48.130;11.348;2022-08-21T09:02:59;95477.35;;;22.74;100.00
5462;BME280;912;48.130;11.348;2022-08-21T09:05:45;95472.70;;;24.11;100.00
5462;BME280;912;48.130;11.348;2022-08-21T09:08:54;95470.45;;;25.46;92.84
5462;BME280;912;48.130;11.348;2022-08-21T09:11:51;95461.22;;;27.35;88.24
5462;BME280;912;48.130;11.348;2022-08-21T09:14:58;95459.61;;;27.59;82.81
5462;BME280;912;48.130;11.348;2022-08-21T09:17:46;95449.98;;;29.49;79.10
5462;BME280;912;48.130;11.348;2022-08-21T09:20:29;95452.34;;;31.06;76.61
5462;BME280;912;48.130;11.348;2022-08-21T09:23:33;95440.72;;;31.77;68.87
5462;BME280;912;48.130;11.348;2022-08-21T09:26:14;95449.31;;;29.43;72.58
5462;BME280;912;48.130;11.348;2022-08-21T09:28:56;95451.01;;;28.50;80.95
5462;BME280;912;48.130;11.348;2022-08-21T09:31:37;95456.80;;;26.63;88.30
5462;BME280;912;48.130;11.348;2022-08-21T09:35:53;95448.28;;;27.38;89.10
5462;BME280;912;48.130;11.348;2022-08-21T09:38:35;95441.48;;;28.74;80.62
5462;BME280;912;48.130;11.348;2022-08-21T09:41:15;95439.34;;;29.34;77.69
5462;BME280;912;48.130;11.348;2022-08-21T09:43:57;95436.95;;;28.44;76.10
5462;BME280;912;48.130;11.348;2022-08-21T09:46:38;95442.12;;;28.29;79.49
5462;BME280;912;48.130;11.348;2022-08-21T09:51:54;95435.31;;;29.47;73.81
5462;BME280;912;48.130;11.348;2022-08-21T09:54:37;95438.16;;;27.64;79.26
5462;BME280;912;48.130;11.348;2022-08-21T09:57:23;95434.36;;;27.82;84.54
5462;BME280;912;48.130;11.348;2022-08-21T10:00:24;95436.70;;;27.48;85.36
5462;BME280;912;48.130;11.348;2022-08-21T10:03:11;95432.92;;;26.89;86.51
5462;BME280;912;48.130;11.348;2022-08-21T10:08:29;95442.85;;;24.51;100.00
5462;BME280;912;48.130;11.348;2022-08-21T10:11:13;95436.47;;;23.93;100.00
5462;BME280;912;48.130;11.348;2022-08-21T10:14:03;95434.70;;;24.85;100.00
5462;BME280;912;48.130;11.348;2022-08-21T10:16:55;95425.88;;;27.23;92.92
5462;BME280;912;48.130;11.348;2022-08-21T10:22:46;95421.23;;;32.77;61.82
5462;BME280;912;48.130;11.348;2022-08-21T10:25:33;95419.03;;;32.58;58.82
5462;BME280;912;48.130;11.348;2022-08-21T10:41:30;95396.63;;;35.69;51.81
5462;BME280;912;48.130;11.348;2022-08-21T10:47:37;95404.31;;;32.03;54.16
5462;BME280;912;48.130;11.348;2022-08-21T10:50:30;95401.52;;;33.68;50.54
5462;BME280;912;48.130;11.348;2022-08-21T10:56:13;95392.88;;;33.88;48.00
5462;BME280;912;48.130;11.348;2022-08-21T10:59:20;95395.67;;;33.32;52.09
5462;BME280;912;48.130;11.348;2022-08-21T11:07:38;95386.79;;;33.46;51.61
5462;BME280;912;48.130;11.348;2022-08-21T11:10:23;95379.24;;;33.90;51.73
5462;BME280;912;48.130;11.348;2022-08-21T11:13:06;95384.52;;;32.62;54.27
5462;BME280;912;48.130;11.348;2022-08-21T11:15:58;95383.77;;;32.47;52.07
5462;BME280;912;48.130;11.348;2022-08-21T11:18:35;95388.09;;;30.29;54.36
5462;BME280;912;48.130;11.348;2022-08-21T11:21:29;95373.59;;;33.01;47.91
5462;BME280;912;48.130;11.348;2022-08-21T11:24:17;95375.77;;;34.99;44.95
5462;BME280;912;48.130;11.348;2022-08-21T11:27:04;95367.47;;;36.29;42.71
5462;BME280;912;48.130;11.348;2022-08-21T11:29:44;95359.17;;;38.79;39.74
5462;BME280;912;48.130;11.348;2022-08-21T11:32:37;95367.28;;;35.75;40.91
5462;BME280;912;48.130;11.348;2022-08-21T11:35:52;95366.12;;;34.16;43.65
5462;BME280;912;48.130;11.348;2022-08-21T11:38:40;95358.19;;;37.32;43.12
5462;BME280;912;48.130;11.348;2022-08-21T11:41:30;95352.02;;;40.09;36.08
5462;BME280;912;48.130;11.348;2022-08-21T11:44:18;95348.90;;;39.78;38.65
5462;BME280;912;48.130;11.348;2022-08-21T11:50:14;95354.12;;;39.89;40.11
5462;BME280;912;48.130;11.348;2022-08-21T11:52:56;95353.86;;;37.46;40.52
5462;BME280;912;48.130;11.348;2022-08-21T11:55:43;95366.66;;;34.01;43.08
5462;BME280;912;48.130;11.348;2022-08-21T11:58:25;95360.26;;;33.60;42.30
5462;BME280;912;48.130;11.348;2022-08-21T12:01:07;95360.39;;;32.77;43.91
5462;BME280;912;48.130;11.348;2022-08-21T12:03:57;95361.22;;;30.36;47.00
5462;BME280;912;48.130;11.348;2022-08-21T12:06:40;95361.02;;;30.05;48.41
5462;BME280;912;48.130;11.348;2022-08-21T12:09:34;95352.43;;;28.84;53.73
5462;BME280;912;48.130;11.348;2022-08-21T12:12:26;95348.09;;;33.13;45.83
5462;BME280;912;48.130;11.348;2022-08-21T12:18:29;95345.69;;;35.43;41.87
5462;BME280;912;48.130;11.348;2022-08-21T12:21:19;95342.32;;;34.90;38.59
5462;BME280;912;48.130;11.348;2022-08-21T12:24:05;95339.22;;;35.14;37.83
5462;BME280;912;48.130;11.348;2022-08-21T12:26:49;95329.04;;;35.98;38.01
5462;BME280;912;48.130;11.348;2022-08-21T12:32:28;95330.59;;;34.93;39.45
5462;BME280;912;48.130;11.348;2022-08-21T12:35:51;95321.08;;;37.94;36.16
5462;BME280;912;48.130;11.348;2022-08-21T12:38:39;95315.42;;;39.69;34.70
5462;BME280;912;48.130;11.348;2022-08-21T12:41:17;95317.03;;;39.25;34.04
5462;BME280;912;48.130;11.348;2022-08-21T12:44:00;95316.06;;;39.16;33.01
5462;BME280;912;48.130;11.348;2022-08-21T12:46:57;95305.90;;;36.33;37.82
5462;BME280;912;48.130;11.348;2022-08-21T12:49:50;95303.80;;;38.57;35.20
5462;BME280;912;48.130;11.348;2022-08-21T12:52:32;95305.70;;;36.76;37.28
5462;BME280;912;48.130;11.348;2022-08-21T12:55:12;95299.10;;;39.26;35.75
5462;BME280;912;48.130;11.348;2022-08-21T12:57:53;95286.50;;;40.88;33.54
5462;BME280;912;48.130;11.348;2022-08-21T13:00:35;95289.45;;;41.71;32.49
5462;BME280;912;48.130;11.348;2022-08-21T13:03:17;95281.19;;;41.96;30.65
5462;BME280;912;48.130;11.348;2022-08-21T13:05:58;95279.78;;;41.18;33.24
5462;BME280;912;48.130;11.348;2022-08-21T13:08:40;95285.34;;;40.69;31.83
5462;BME280;912;48.130;11.348;2022-08-21T13:11:22;95282.95;;;41.50;30.97
5462;BME280;912;48.130;11.348;2022-08-21T13:14:04;95291.83;;;36.62;34.57
5462;BME280;912;48.130;11.348;2022-08-21T13:16:52;95302.40;;;32.17;39.72
5462;BME280;912;48.130;11.348;2022-08-21T13:19:31;95298.73;;;30.93;41.04
5462;BME280;912;48.130;11.348;2022-08-21T13:22:15;95294.75;;;34.16;38.27
5462;BME280;912;48.130;11.348;2022-08-21T13:24:57;95290.37;;;35.99;35.50
5462;BME280;912;48.130;11.348;2022-08-21T13:27:41;95286.89;;;35.56;35.86
5462;BME280;912;48.130;11.348;2022-08-21T13:30:23;95285.42;;;36.55;34.75
5462;BME280;912;48.130;11.348;2022-08-21T13:36:08;95282.59;;;35.13;35.39
5462;BME280;912;48.130;11.348;2022-08-21T13:38:46;95277.38;;;36.22;35.46
5462;BME280;912;48.130;11.348;2022-08-21T13:41:29;95270.94;;;36.94;34.54
5462;BME280;912;48.130;11.348;2022-08-21T13:44:20;95269.27;;;38.37;33.28
5462;BME280;912;48.130;11.348;2022-08-21T13:47:03;95266.88;;;37.14;34.44
5462;BME280;912;48.130;11.348;2022-08-21T13:49:45;95268.20;;;36.78;35.39
5462;BME280;912;48.130;11.348;2022-08-21T13:52:26;95264.09;;;38.48;34.90
5462;BME280;912;48.130;11.348;2022-08-21T13:55:09;95265.35;;;38.80;33.92
5462;BME280;912;48.130;11.348;2022-08-21T13:57:58;95265.36;;;37.83;34.25
5462;BME280;912;48.130;11.348;2022-08-21T14:00:32;95261.07;;;39.96;32.56
5462;BME280;912;48.130;11.348;2022-08-21T14:03:13;95269.00;;;40.07;33.21
5462;BME280;912;48.130;11.348;2022-08-21T14:05:59;95266.16;;;39.58;32.54
5462;BME280;912;48.130;11.348;2022-08-21T14:08:41;95273.55;;;36.12;34.25
5462;BME280;912;48.130;11.348;2022-08-21T14:11:23;95283.27;;;32.87;37.72
5462;BME280;912;48.130;11.348;2022-08-21T14:14:05;95282.72;;;30.93;41.06
5462;BME280;912;48.130;11.348;2022-08-21T14:16:52;95288.19;;;30.12;41.91
5462;BME280;912;48.130;11.348;2022-08-21T14:19:38;95279.15;;;30.72;41.20
5462;BME280;912;48.130;11.348;2022-08-21T14:22:40;95284.33;;;30.42;41.59
5462;BME280;912;48.130;11.348;2022-08-21T14:27:03;95281.92;;;28.46;44.48
5462;BME280;912;48.130;11.348;2022-08-21T14:29:44;95280.30;;;27.38;47.36
5462;BME280;912;48.130;11.348;2022-08-21T14:32:27;95280.48;;;29.61;44.17
5462;BME280;912;48.130;11.348;2022-08-21T14:35:52;95272.44;;;31.88;41.22
5462;BME280;912;48.130;11.348;2022-08-21T14:38:34;95266.77;;;32.97;38.88
5462;BME280;912;48.130;11.348;2022-08-21T14:41:16;95265.67;;;33.59;38.39
5462;BME280;912;48.130;11.348;2022-08-21T14:43:59;95269.31;;;34.21;38.00
5462;BME280;912;48.130;11.348;2022-08-21T14:46:41;95261.59;;;34.86;36.48
5462;BME280;912;48.130;11.348;2022-08-21T14:49:24;95255.14;;;35.43;35.97
5462;BME280;912;48.130;11.348;2022-08-21T14:52:05;95254.11;;;35.78;35.11
5462;BME280;912;48.130;11.348;2022-08-21T14:54:47;95255.08;;;34.97;35.69
5462;BME280;912;48.130;11.348;2022-08-21T14:57:29;95256.86;;;33.07;38.16
5462;BME280;912;48.130;11.348;2022-08-21T15:00:13;95261.36;;;33.28;37.86
5462;BME280;912;48.130;11.348;2022-08-21T15:02:53;95255.52;;;34.65;36.02
5462;BME280;912;48.130;11.348;2022-08-21T15:05:35;95255.73;;;34.90;35.75
5462;BME280;912;48.130;11.348;2022-08-21T15:08:17;95253.77;;;33.87;36.97
5462;BME280;912;48.130;11.348;2022-08-21T15:10:59;95255.09;;;33.93;36.17
5462;BME280;912;48.130;11.348;2022-08-21T15:13:43;95254.19;;;33.93;36.18
5462;BME280;912;48.130;11.348;2022-08-21T15:16:26;95253.56;;;34.97;37.47
5462;BME280;912;48.130;11.348;2022-08-21T15:19:06;95251.86;;;33.17;38.01
5462;BME280;912;48.130;11.348;2022-08-21T15:21:48;95250.84;;;33.01;38.01
5462;BME280;912;48.130;11.348;2022-08-21T15:24:30;95253.52;;;32.31;38.32
5462;BME280;912;48.130;11.348;2022-08-21T15:27:15;95253.80;;;33.17;37.51
5462;BME280;912;48.130;11.348;2022-08-21T15:29:56;95252.20;;;33.17;37.29
5462;BME280;912;48.130;11.348;2022-08-21T15:32:41;95249.64;;;34.32;36.12
5462;BME280;912;48.130;11.348;2022-08-21T15:35:50;95254.17;;;33.84;36.46
5462;BME280;912;48.130;11.348;2022-08-21T15:38:32;95251.41;;;35.02;35.21
5462;BME280;912;48.130;11.348;2022-08-21T15:41:13;95246.28;;;35.28;34.29
5462;BME280;912;48.130;11.348;2022-08-21T15:43:55;95242.84;;;35.37;34.94
5462;BME280;912;48.130;11.348;2022-08-21T15:46:40;95242.97;;;36.42;33.63
5462;BME280;912;48.130;11.348;2022-08-21T15:49:22;95239.05;;;35.30;34.73